This is the latest recevied weather packets stored in our database for station/object SQ7RAF-15. If no packets are shown the sender has not sent any weather packets the latest 10 day(s).
| Time | Temp. | Humidity | Pressure | Rain* | Wind** | Luminosity | Snow |
|---|---|---|---|---|---|---|---|
| 1777445737 | 5° C | 47% | 1027.9 hPa | 0 mm | - | 338 W/m² | - |
| 1777445417 | 5° C | 47% | 1027.9 hPa | 0 mm | - | 300 W/m² | - |
| 1777445129 | 5.56° C | 45% | 1027.9 hPa | 0 mm | - | 304 W/m² | - |
| 1777444825 | 5.56° C | 45% | 1027.9 hPa | 0 mm | - | 296 W/m² | - |
| 1777444537 | 5.56° C | 46% | 1027.9 hPa | 0 mm | - | 253 W/m² | - |
| 1777444217 | 5.56° C | 49% | 1027.7 hPa | 0 mm | - | 243 W/m² | - |
| 1777443929 | 5.56° C | 49% | 1027.7 hPa | 0 mm | - | 239 W/m² | - |
| 1777443641 | 5.56° C | 50% | 1027.7 hPa | 0 mm | - | 228 W/m² | - |
| 1777443322 | 5° C | 53% | 1027.7 hPa | 0 mm | - | 214 W/m² | - |
| 1777443033 | 4.44° C | 55% | 1027.6 hPa | 0 mm | - | 199 W/m² | - |
| 1777442745 | 4.44° C | 56% | 1027.6 hPa | 0 mm | - | 203 W/m² | - |
| 1777442441 | 3.89° C | 58% | 1027.5 hPa | 0 mm | - | 207 W/m² | - |
| 1777442121 | 4.44° C | 59% | 1027.5 hPa | 0 mm | - | 185 W/m² | - |
| 1777441833 | 4.44° C | 59% | 1027.5 hPa | 0 mm | - | 171 W/m² | - |
| 1777441545 | 3.89° C | 60% | 1027.5 hPa | 0 mm | - | 161 W/m² | - |
| 1777441225 | 3.33° C | 63% | 1027.5 hPa | 0 mm | - | 150 W/m² | - |
| 1777440921 | 3.33° C | 64% | 1027.3 hPa | 0 mm | - | 143 W/m² | - |
| 1777440633 | 3.33° C | 64% | 1027.3 hPa | 0 mm | - | 130 W/m² | - |
| 1777440329 | 2.78° C | 66% | 1027.3 hPa | 0 mm | - | 127 W/m² | - |
| 1777440041 | 3.33° C | 64% | 1027.2 hPa | 0 mm | - | 118 W/m² | - |
| 1777439721 | 2.78° C | 64% | 1027.2 hPa | 0 mm | - | 119 W/m² | - |
| 1777439433 | 2.78° C | 66% | 1027.2 hPa | 0 mm | - | 108 W/m² | - |
| 1777439146 | 2.78° C | 66% | 1027.1 hPa | 0 mm | - | 95 W/m² | - |
| 1777438843 | 3.33° C | 65% | 1027.1 hPa | 0 mm | - | 81 W/m² | - |
| 1777438521 | 2.78° C | 66% | 1027.1 hPa | 0 mm | - | 80 W/m² | - |
* Rain latest hour (hover to see other rain measurements)
** Current wind speed in m/s (hover to see current wind gust speed)